Date,TemperatureHighF,TemperatureAvgF,TemperatureLowF,DewpointHighF,DewpointAvgF,DewpointLowF,HumidityHigh,HumidityAvg,HumidityLow,PressureMaxIn,PressureMinIn,WindSpeedMaxMPH,WindSpeedAvgMPH,GustSpeedMaxMPH,PrecipitationSumIn
2013-1-1,44,42,39,42,38,35,92,87,84,30.00,29.44,10,6,22,0.04
2013-1-2,51,47,43,50,45,40,95,93,88,30.23,30.00,9,6,22,0.14
2013-1-3,51,50,48,50,48,46,94,94,93,30.55,30.23,13,6,28,0.06
2013-1-4,48,47,46,47,46,45,95,94,92,30.59,30.52,10,4,21,0.01
2013-1-5,51,48,44,47,45,41,94,90,83,30.54,30.43,10,3,19,0.00
2013-1-6,49,47,45,48,46,43,98,94,93,30.50,30.42,5,2,11,0.00
2013-1-7,49,48,46,46,46,44,95,91,88,30.42,30.12,10,6,20,0.03
2013-1-8,52,48,42,49,46,40,95,92,89,30.22,30.09,11,4,19,0.24
2013-1-9,42,40,36,40,38,34,96,95,94,30.22,30.08,5,1,8,0.01
2013-1-10,39,36,32,37,34,31,95,94,93,30.08,29.94,5,1,8,0.00
2013-1-11,39,36,31,38,34,30,96,95,92,30.08,29.95,5,1,13,0.02
2013-1-12,39,36,32,36,32,29,92,87,74,30.09,29.90,10,5,23,0.00
2013-1-13,35,32,29,33,30,27,93,92,88,30.18,30.05,6,1,12,0.01
2013-1-14,35,33,32,34,32,31,95,94,93,30.05,29.80,4,1,11,0.13
2013-1-15,36,31,26,33,28,24,94,90,84,29.89,29.75,6,1,9,0.01
2013-1-16,33,30,25,28,25,23,91,85,76,30.00,29.83,5,2,10,0.01
2013-1-17,35,33,31,30,28,24,92,82,76,30.01,29.82,11,5,29,0.00
2013-1-18,33,31,28,30,27,25,92,84,79,29.82,29.48,11,8,23,0.00
2013-1-19,34,32,31,30,28,27,89,85,82,29.62,29.49,9,5,21,0.00
2013-1-20,34,33,32,30,29,28,90,85,82,29.60,29.38,8,4,19,0.00
2013-1-21,33,32,30,32,30,27,94,91,88,29.44,29.30,8,2,13,0.02
2013-1-22,35,33,30,33,30,27,95,88,79,29.78,29.44,7,4,17,0.13
2013-1-23,34,32,28,31,28,25,92,87,82,29.91,29.79,6,2,14,0.01
2013-1-24,37,32,29,30,28,23,90,83,73,30.12,29.91,7,2,15,0.01
2013-1-25,34,32,29,33,28,23,95,85,75,30.07,29.45,18,13,36,0.62
2013-1-26,43,39,34,40,36,33,100,91,84,29.71,29.24,22,9,44,0.36
2013-1-27,48,43,39,46,38,34,93,84,73,29.45,29.04,21,12,42,0.18
2013-1-28,50,42,38,44,38,33,92,83,73,29.58,29.19,26,13,56,0.31
2013-1-29,55,49,44,52,44,40,92,86,74,29.51,29.25,23,12,45,0.20
2013-1-30,47,45,42,44,40,37,92,85,72,29.87,29.35,20,11,48,0.05
2013-1-31,46,44,41,40,39,36,89,81,76,29.86,29.54,18,12,45,0.16
2013-2-1,45,41,35,40,37,31,93,86,80,29.74,29.42,10,6,26,0.11
2013-2-2,40,34,28,31,28,26,90,79,61,30.24,29.75,11,4,21,0.00
2013-2-3,48,42,32,46,40,30,95,92,84,30.19,29.76,13,9,30,0.07
2013-2-4,48,42,34,46,38,32,93,86,79,29.84,29.54,17,11,42,0.30
2013-2-5,42,37,33,39,34,30,93,87,79,29.55,29.21,15,10,34,0.27
2013-2-6,41,38,34,37,31,27,88,76,66,30.14,29.42,17,8,30,0.01
2013-2-7,39,35,30,36,32,26,92,88,82,30.15,29.99,7,1,12,0.01
2013-2-8,43,37,33,38,34,31,94,89,75,30.19,30.08,9,2,16,0.00
2013-2-9,40,37,34,38,35,32,94,92,89,30.17,29.81,4,1,9,0.15
2013-2-10,38,36,34,36,34,31,93,91,86,29.81,29.29,12,6,25,0.40
2013-2-11,38,35,33,31,29,27,88,80,71,29.88,29.35,11,7,24,0.00
2013-2-12,37,34,31,29,28,27,86,79,72,30.11,29.88,7,2,14,0.00
2013-2-13,38,34,31,37,30,26,93,87,76,30.12,29.72,23,14,48,0.57
2013-2-14,45,42,38,44,40,36,95,93,90,29.93,29.66,16,6,26,0.20
2013-2-15,46,42,35,42,39,34,93,90,84,30.17,29.93,11,4,21,0.00
2013-2-16,48,41,35,42,37,32,95,87,75,30.19,30.15,8,2,14,0.01
2013-2-17,48,41,36,38,34,31,92,78,59,30.16,30.07,12,4,24,0.00
2013-2-18,46,38,32,36,32,29,89,80,65,30.14,30.09,5,2,15,0.00
2013-2-19,51,38,29,40,32,27,92,80,44,30.14,30.06,6,2,13,0.01
2013-2-20,38,36,32,35,31,26,89,83,74,30.30,30.13,10,6,22,0.00
2013-2-21,38,34,32,27,25,22,79,70,60,30.31,30.25,11,7,23,0.00
2013-2-22,35,33,31,27,25,23,79,71,66,30.26,30.22,8,3,18,0.00
2013-2-23,36,33,31,32,29,26,89,85,79,30.32,30.20,3,1,7,0.00
2013-2-24,39,34,30,33,29,26,88,81,70,30.43,30.32,10,3,20,0.00
2013-2-25,43,38,29,37,33,25,90,83,77,30.54,30.41,8,4,18,0.00
2013-2-26,40,39,36,36,34,32,85,83,81,30.67,30.52,8,5,23,0.00
2013-2-27,48,38,30,36,32,26,89,78,57,30.66,30.57,5,1,13,0.00
2013-2-28,52,39,26,38,31,24,92,76,41,30.58,30.45,7,2,16,0.00
2013-3-1,45,42,35,38,34,29,89,73,64,30.49,30.45,5,2,15,0.01
2013-3-2,45,36,26,38,32,23,91,84,71,30.46,30.28,6,1,14,0.00
2013-3-3,48,41,32,39,35,29,93,80,66,30.29,30.11,8,3,15,0.00
2013-3-4,49,39,32,36,32,28,89,78,54,30.11,29.75,8,4,17,0.00
2013-3-5,54,40,29,42,35,27,95,83,58,29.75,29.58,7,4,15,0.00
2013-3-6,44,40,36,40,37,34,93,89,84,29.62,29.55,10,7,22,0.00
2013-3-7,48,43,40,44,39,38,94,87,79,29.56,29.40,11,7,26,0.07
2013-3-8,43,41,39,40,38,36,94,89,86,29.60,29.41,11,8,26,0.00
2013-3-9,39,38,35,37,35,32,92,91,88,29.76,29.59,9,5,21,0.18
2013-3-10,37,34,27,33,26,19,92,75,55,29.95,29.76,14,8,30,0.03
2013-3-11,34,28,26,26,22,19,87,76,60,30.02,29.94,10,5,26,0.00
2013-3-12,40,32,21,31,24,17,87,74,59,30.02,29.89,12,4,21,0.01
2013-3-13,42,36,27,30,27,22,85,70,54,30.01,29.85,10,4,19,0.00
2013-3-14,41,34,23,36,30,19,92,86,75,30.02,29.77,10,4,20,0.14
2013-3-15,44,40,38,42,38,35,95,90,86,29.77,29.39,16,7,29,0.20
2013-3-16,44,39,33,42,36,31,94,91,86,29.39,29.22,6,2,11,0.38
2013-3-17,44,37,33,38,34,31,94,88,69,29.22,29.16,9,4,18,0.15
2013-3-18,40,35,31,36,32,29,93,89,85,29.40,29.19,8,2,19,0.02
2013-3-19,44,37,28,36,32,25,92,82,64,29.57,29.40,9,3,18,0.00
2013-3-20,40,36,33,34,32,29,89,84,77,30.02,29.57,8,5,16,0.00
2013-3-21,40,35,31,30,29,27,87,77,66,30.05,29.91,15,8,31,0.00
2013-3-22,34,33,32,31,30,28,92,88,77,29.91,29.80,17,13,34,0.06
2013-3-23,34,33,32,30,28,25,90,83,76,30.02,29.85,16,12,33,0.02
2013-3-24,36,33,31,26,25,23,77,71,61,30.12,30.00,17,13,34,0.00
2013-3-25,38,34,32,28,26,23,78,71,59,30.13,30.09,16,10,34,0.00
2013-3-26,38,33,32,28,26,24,82,75,60,30.11,30.03,13,6,25,0.00
2013-3-27,38,33,30,30,27,24,92,79,66,30.04,29.97,8,4,23,0.00
2013-3-28,39,34,26,30,25,21,92,72,57,30.03,29.99,10,4,24,0.00
2013-3-29,41,33,22,27,23,19,88,69,48,29.99,29.86,9,3,18,0.00
2013-3-30,43,33,22,30,24,18,89,71,43,30.02,29.90,7,2,15,0.00
2013-3-31,43,34,26,29,24,22,85,68,46,30.03,29.94,10,4,19,0.00
2013-4-1,42,36,31,29,26,23,85,68,53,30.00,29.93,12,7,25,0.00
2013-4-2,44,36,31,32,27,24,86,69,49,30.19,30.00,9,4,20,0.00
2013-4-3,47,37,27,32,28,23,89,70,45,30.21,30.15,10,4,23,0.00
2013-4-4,46,38,33,33,28,20,85,68,38,30.19,30.10,10,6,24,0.00
2013-4-5,45,38,32,35,30,28,86,74,54,30.25,30.10,10,4,20,0.00
2013-4-6,49,36,25,33,28,22,88,72,49,30.32,30.25,9,2,20,0.00
2013-4-7,50,40,28,35,29,24,92,68,43,30.26,29.92,9,3,17,0.00
2013-4-8,46,39,35,32,30,28,84,71,52,29.92,29.63,12,9,27,0.00
2013-4-9,48,40,34,35,32,28,83,73,51,29.64,29.52,12,8,27,0.00
2013-4-10,51,42,30,37,33,27,88,72,55,29.69,29.53,10,3,18,0.00
2013-4-11,43,40,37,39,36,33,91,83,78,29.53,29.38,9,6,17,0.06
2013-4-12,52,43,38,45,40,36,92,87,71,29.69,29.33,7,4,15,0.02
2013-4-13,54,47,37,51,42,34,96,85,56,29.78,29.62,16,8,33,0.07
2013-4-14,60,55,53,53,50,45,90,81,68,29.73,29.60,27,18,48,0.08
2013-4-15,61,55,50,48,45,41,87,70,51,29.89,29.72,21,13,40,0.04
2013-4-16,57,52,45,46,43,36,89,72,48,29.96,29.66,22,13,44,0.06
2013-4-17,60,52,44,52,44,36,91,76,60,29.97,29.46,34,16,64,0.09
2013-4-18,53,48,44,44,41,39,91,78,64,29.95,29.44,32,17,57,0.28
2013-4-19,52,44,36,44,39,33,91,83,70,30.50,29.95,13,5,22,0.00
2013-4-20,58,46,32,41,36,30,91,72,47,30.52,30.30,13,5,23,0.00
2013-4-21,49,45,41,44,39,34,90,79,70,30.29,29.94,15,7,25,0.09
2013-4-22,54,48,41,49,44,38,92,85,72,29.96,29.80,16,8,34,0.03
2013-4-23,57,50,45,47,44,42,92,82,63,30.18,29.88,12,7,29,0.00
2013-4-24,57,50,46,52,46,41,90,84,75,30.26,30.08,15,6,36,0.00
2013-4-25,52,47,42,49,44,39,94,88,79,30.24,30.08,10,3,22,0.16
2013-4-26,49,42,36,41,38,34,94,84,63,30.10,29.94,14,5,38,0.00
2013-4-27,52,44,36,40,36,31,91,72,52,30.11,30.03,10,4,23,0.02
2013-4-28,48,43,35,45,39,32,93,86,74,30.10,29.76,13,7,27,0.09
2013-4-29,51,45,41,43,39,37,88,81,63,30.17,29.79,13,7,31,0.00
2013-4-30,56,46,40,42,38,33,91,74,44,30.32,30.17,6,2,13,0.00
2013-5-1,56,47,37,45,39,33,88,73,55,30.32,30.23,11,5,20,0.00
2013-5-2,60,47,31,42,33,23,93,64,32,30.28,30.16,6,2,15,0.00
2013-5-3,56,51,40,47,43,35,83,74,69,30.16,30.03,10,6,25,0.00
2013-5-4,56,52,46,47,44,40,91,75,64,30.05,29.84,11,7,31,0.04
2013-5-5,60,53,46,52,47,41,91,81,71,30.16,30.05,12,6,22,0.00
2013-5-6,67,52,39,50,44,36,92,75,41,30.15,30.03,7,2,14,0.00
2013-5-7,71,59,44,49,45,41,89,63,43,30.08,29.82,10,4,21,0.00
2013-5-8,62,56,47,55,47,38,92,72,62,29.82,29.54,18,9,28,0.04
2013-5-9,51,47,43,46,42,37,93,82,65,29.66,29.35,22,14,45,0.58
2013-5-10,57,49,45,50,45,40,94,89,76,29.78,29.41,15,9,34,0.16
2013-5-11,52,46,42,47,41,38,93,84,73,29.82,29.68,12,8,33,0.39
2013-5-12,51,48,44,49,45,40,94,89,77,29.91,29.75,15,8,26,0.34
2013-5-13,50,46,41,46,40,36,93,79,64,29.77,29.67,15,9,32,0.06
2013-5-14,54,47,43,43,40,38,86,77,62,29.67,29.34,13,6,35,0.02
2013-5-15,52,45,41,44,41,37,93,86,73,29.50,29.19,14,6,28,0.84
2013-5-16,56,47,37,44,41,34,92,80,58,29.61,29.49,8,3,17,0.08
2013-5-17,56,49,44,46,44,41,90,80,62,29.84,29.61,7,2,16,0.09
2013-5-18,48,47,46,47,46,44,96,94,90,29.84,29.70,7,4,16,0.16
2013-5-19,58,51,45,53,48,44,96,90,77,29.97,29.81,8,2,15,0.00
2013-5-20,62,55,50,57,52,48,95,91,85,30.00,29.91,7,3,14,0.00
2013-5-21,58,52,46,53,49,43,95,91,79,30.10,29.99,8,3,17,0.03
2013-5-22,54,49,44,47,43,38,93,82,68,30.11,30.04,16,7,33,0.00
2013-5-23,49,44,38,41,38,34,88,78,65,30.04,29.88,15,7,32,0.02
2013-5-24,51,46,42,42,39,36,84,76,65,30.18,29.82,14,6,28,0.01
2013-5-25,59,48,34,44,38,32,93,71,49,30.22,30.17,7,2,17,0.00
2013-5-26,62,49,36,51,43,33,93,80,58,30.18,29.90,6,2,18,0.00
2013-5-27,56,48,40,48,44,38,92,86,69,29.89,29.54,16,7,31,0.31
2013-5-28,53,49,46,51,46,42,93,88,75,29.62,29.55,10,4,20,0.24
2013-5-29,58,53,46,54,48,40,91,86,76,29.86,29.62,7,2,17,0.02
2013-5-30,60,55,51,53,50,47,91,84,76,30.08,29.82,5,2,12,0.01
2013-5-31,62,53,44,56,48,42,95,84,66,30.18,30.07,10,4,21,0.00
2013-6-1,57,50,42,47,44,40,92,79,62,30.34,30.18,12,5,22,0.00
2013-6-2,59,51,41,48,44,38,92,79,65,30.48,30.33,8,3,18,0.00
2013-6-3,69,55,41,54,48,38,94,77,53,30.51,30.44,7,1,15,0.00
2013-6-4,68,59,45,51,48,42,89,68,51,30.47,30.28,7,2,14,0.00
2013-6-5,65,57,47,52,49,44,91,76,59,30.29,30.13,5,2,16,0.00
2013-6-6,69,59,50,53,49,47,90,72,48,30.27,30.18,5,2,14,0.00
2013-6-7,71,60,48,55,49,44,90,68,47,30.28,30.23,6,2,13,0.00
2013-6-8,68,59,50,53,48,45,84,68,50,30.28,30.11,4,2,13,0.00
2013-6-9,67,58,42,55,49,40,92,73,60,30.12,30.00,3,1,10,0.00
2013-6-10,66,59,48,53,49,43,86,69,56,30.00,29.90,8,3,17,0.00
2013-6-11,64,56,48,58,50,42,85,80,74,29.91,29.75,11,6,22,0.00
2013-6-12,62,58,56,58,54,52,93,88,80,29.75,29.61,11,7,24,0.13
2013-6-13,58,54,52,56,52,48,94,90,82,29.90,29.56,11,6,22,0.06
2013-6-14,60,54,49,56,51,46,93,89,77,29.92,29.60,14,7,28,0.29
2013-6-15,60,54,47,50,48,45,92,81,64,29.69,29.54,15,8,31,0.11
2013-6-16,62,56,51,55,50,49,94,82,63,29.98,29.69,8,3,18,0.03
2013-6-17,66,59,53,54,51,48,92,75,60,30.02,29.96,5,2,16,0.00
2013-6-18,72,62,49,59,52,45,86,72,55,30.02,29.92,5,1,11,0.00
2013-6-19,67,59,47,59,52,43,90,77,61,30.05,29.95,7,2,16,0.00
2013-6-20,68,57,43,60,51,40,93,83,70,30.03,29.79,5,2,12,0.05
2013-6-21,65,59,55,58,54,49,94,86,70,29.81,29.71,8,2,16,0.01
2013-6-22,59,54,51,56,51,48,94,90,80,29.70,29.46,14,8,27,0.60
2013-6-23,55,53,51,53,51,47,95,92,87,29.98,29.49,13,8,39,0.15
2013-6-24,58,53,49,49,47,45,89,81,69,30.30,29.98,9,6,24,0.00
2013-6-25,65,55,44,53,48,41,94,79,59,30.44,30.30,5,1,15,0.00
2013-6-26,62,56,49,56,50,46,93,81,63,30.45,30.42,10,3,21,0.00
2013-6-27,57,53,50,54,50,47,95,91,80,30.42,30.17,8,3,17,0.28
2013-6-28,58,56,50,56,54,48,96,96,95,30.17,30.03,10,5,24,0.43
2013-6-29,62,55,49,56,51,47,95,86,69,30.23,30.10,9,4,20,0.01
2013-6-30,63,58,52,57,55,50,94,88,78,30.21,29.97,12,6,29,0.07
2013-7-1,61,54,50,52,49,45,93,82,64,29.98,29.95,9,4,25,0.00
2013-7-2,58,55,50,55,51,46,95,87,77,29.95,29.51,13,7,25,0.22
2013-7-3,60,57,54,57,54,51,96,93,84,29.93,29.51,8,4,18,0.09
2013-7-4,66,60,56,59,55,52,91,84,70,30.24,29.88,12,6,28,0.00
2013-7-5,68,60,51,59,54,48,92,81,69,30.41,30.24,5,2,15,0.00
2013-7-6,72,62,52,62,57,50,94,84,70,30.46,30.35,7,2,14,0.00
2013-7-7,75,63,50,66,58,48,94,82,71,30.53,30.46,4,1,13,0.00
2013-7-8,77,70,59,62,57,47,88,65,38,30.58,30.49,4,1,10,0.00
2013-7-9,78,66,52,67,60,50,94,80,62,30.49,30.31,5,1,13,0.00
2013-7-10,71,65,56,62,59,52,92,80,69,30.34,30.30,5,2,15,0.00
2013-7-11,74,62,54,62,54,50,88,76,56,30.34,30.25,5,1,13,0.00
2013-7-12,77,66,53,66,59,51,94,79,62,30.28,30.23,6,1,16,0.00
2013-7-13,79,66,53,69,59,51,93,80,55,30.29,30.25,6,2,15,0.00
2013-7-14,71,62,54,60,55,50,94,80,52,30.29,30.22,6,2,14,0.00
2013-7-15,68,61,52,63,57,49,95,87,73,30.24,30.22,5,1,13,0.00
2013-7-16,74,62,50,64,56,48,95,82,63,30.26,30.21,6,1,13,0.00
2013-7-17,78,65,52,64,57,51,95,78,55,30.31,30.25,7,1,13,0.00
2013-7-18,81,71,55,65,60,53,94,71,54,30.35,30.30,4,1,10,0.00
2013-7-19,85,72,58,65,61,56,92,70,48,30.33,30.24,7,2,18,0.00
2013-7-20,72,66,59,62,59,56,90,77,65,30.30,30.21,6,3,17,0.00
2013-7-21,67,62,58,59,56,54,87,82,73,30.24,30.08,7,4,17,0.00
2013-7-22,78,68,56,67,61,54,92,80,67,30.10,29.92,5,2,13,0.00
2013-7-23,76,67,61,68,62,58,93,86,74,29.93,29.84,7,2,16,0.08
2013-7-24,74,66,58,63,60,56,94,83,62,29.90,29.85,7,1,14,0.00
2013-7-25,74,66,58,65,60,54,94,82,64,29.87,29.79,8,3,16,0.10
2013-7-26,72,65,54,61,57,51,92,77,63,29.88,29.85,7,1,13,0.00
2013-7-27,68,68,68,59,59,59,71,71,71,29.85,29.85,0,0,4,0.00
2013-7-28,71,64,58,62,59,56,95,83,70,29.85,29.52,10,3,27,1.12
2013-7-29,71,64,59,63,58,54,94,84,68,29.82,29.63,12,7,24,0.06
2013-7-30,69,62,57,59,56,53,90,79,66,29.86,29.80,10,5,20,0.01
2013-7-31,65,61,57,63,58,54,96,90,78,29.93,29.80,10,4,20,0.29
2013-8-1,80,68,60,71,63,58,92,84,72,29.81,29.60,11,5,20,0.00
2013-8-2,75,66,60,64,60,56,94,82,62,29.70,29.61,12,4,23,0.06
2013-8-3,69,62,58,58,55,52,92,76,61,29.97,29.67,11,6,25,0.04
2013-8-4,70,62,57,62,57,53,93,85,66,29.98,29.88,13,8,26,0.09
2013-8-5,66,60,54,63,58,51,95,92,88,29.90,29.66,11,6,22,0.48
2013-8-6,66,57,50,54,51,47,92,80,59,30.01,29.90,6,1,14,0.00
2013-8-7,70,60,52,56,51,48,89,74,55,30.05,29.97,4,0,11,0.00
2013-8-8,73,60,49,60,54,46,95,81,59,30.08,29.98,7,1,16,0.03
2013-8-9,64,59,55,59,55,51,94,86,74,30.16,29.93,9,4,21,0.02
2013-8-10,65,58,54,54,52,50,91,80,61,30.17,30.04,6,2,17,0.00
2013-8-11,61,58,54,56,53,51,94,85,73,30.04,29.96,9,5,25,0.05
2013-8-12,60,57,53,57,53,49,90,84,80,30.00,29.94,10,6,26,0.09
2013-8-13,64,58,50,59,54,48,93,84,72,30.19,30.00,7,4,22,0.04
2013-8-14,69,61,53,62,57,51,93,86,71,30.19,30.02,11,4,24,0.03
2013-8-15,74,65,62,66,62,59,95,89,72,30.02,29.84,12,7,24,0.24
2013-8-16,66,62,57,61,57,55,95,84,70,29.94,29.80,11,4,24,0.24
2013-8-17,65,64,59,61,56,56,95,76,73,29.93,29.52,9,3,24,0.30
2013-8-18,64,58,54,57,53,49,94,84,63,29.87,29.58,9,4,23,0.02
2013-8-19,65,58,52,56,53,49,92,83,66,30.25,29.87,8,3,20,0.00
2013-8-20,70,61,56,59,55,52,91,83,64,30.32,30.24,8,3,19,0.00
2013-8-21,67,61,55,62,57,52,92,87,80,30.24,30.11,12,3,26,0.00
2013-8-22,75,65,57,64,59,55,94,84,64,30.12,29.99,8,1,15,0.00
2013-8-23,71,66,62,64,60,58,93,83,73,30.00,29.87,9,3,20,0.09
2013-8-24,62,58,52,60,55,48,95,90,75,29.94,29.88,9,2,17,0.09
2013-8-25,72,62,51,65,57,49,93,85,68,30.14,29.94,4,0,11,0.00
2013-8-26,77,64,54,61,56,51,93,76,45,30.16,30.08,3,1,11,0.00
2013-8-27,68,62,49,61,56,47,93,82,72,30.11,30.08,4,2,11,0.02
2013-8-28,67,61,49,59,55,46,94,80,71,30.23,30.10,6,2,14,0.02
2013-8-29,66,60,49,61,56,46,92,87,79,30.17,30.08,7,3,17,0.00
2013-8-30,70,62,53,63,59,48,93,88,76,30.14,29.97,9,4,21,0.00
2013-8-31,62,54,46,50,47,42,88,78,63,30.39,30.14,9,3,23,0.00
2013-9-1,58,56,49,53,50,45,88,82,77,30.39,30.29,9,6,24,0.00
2013-9-2,65,60,57,60,57,53,94,89,84,30.33,30.26,8,5,23,0.01
2013-9-3,70,64,60,63,60,57,94,86,73,30.33,30.24,4,1,11,0.00
2013-9-4,74,65,53,63,58,52,96,80,60,30.17,29.96,10,3,21,0.01
2013-9-5,68,59,53,61,54,50,94,85,73,29.96,29.84,6,1,15,0.01
2013-9-6,55,52,49,52,50,47,95,92,84,29.84,29.74,3,0,9,0.57
2013-9-7,56,51,45,50,47,41,95,86,71,29.97,29.73,12,5,26,0.01
2013-9-8,59,51,44,52,46,40,91,83,70,30.00,29.97,10,4,18,0.08
2013-9-9,60,51,46,56,48,44,95,91,80,30.12,29.97,7,1,15,0.13
2013-9-10,61,52,45,54,48,43,95,86,68,30.23,30.12,7,2,17,0.00
2013-9-11,56,52,45,55,51,43,96,94,91,30.23,30.08,5,1,12,0.20
2013-9-12,63,58,52,61,56,51,99,94,89,30.10,29.99,8,1,17,0.16
2013-9-13,59,52,48,57,50,47,96,91,80,30.08,29.99,8,1,18,0.02
2013-9-14,60,51,43,52,47,40,95,85,64,30.08,29.98,6,1,13,0.00
2013-9-15,59,50,42,57,47,40,95,89,78,30.04,29.41,19,8,36,0.64
2013-9-16,52,48,45,47,44,42,92,86,79,29.51,29.43,12,7,34,0.16
2013-9-17,51,49,44,48,45,42,94,88,82,29.50,29.37,8,4,25,0.11
2013-9-18,55,50,46,51,47,44,96,91,77,29.80,29.43,10,3,25,0.11
2013-9-19,56,52,48,54,50,44,95,91,86,29.82,29.59,13,5,33,0.18
2013-9-20,59,54,50,54,50,46,94,87,70,30.15,29.63,7,3,16,0.01
2013-9-21,66,57,48,61,54,44,92,88,84,30.23,30.11,7,1,14,0.00
2013-9-22,68,60,50,62,57,48,94,89,78,30.34,30.23,6,2,17,0.00
2013-9-23,61,56,48,59,54,46,96,93,91,30.32,30.11,3,0,7,0.01
2013-9-24,69,60,53,61,56,51,94,88,72,30.10,29.92,3,0,9,0.00
2013-9-25,65,58,52,62,55,48,95,91,85,29.95,29.85,7,1,20,0.02
2013-9-26,62,56,50,52,49,46,85,78,66,30.07,29.96,6,3,17,0.00
2013-9-27,56,54,52,50,50,49,92,86,78,30.06,30.02,2,1,9,0.00
2013-9-28,63,52,47,53,48,44,91,84,69,29.92,29.84,6,2,16,0.00
2013-10-1,60,58,55,53,51,48,80,78,76,29.81,29.77,8,6,24,0.00
2013-10-2,62,57,53,58,53,49,92,88,78,29.80,29.75,10,5,21,0.23
2013-10-3,65,61,59,60,58,56,94,90,82,29.79,29.55,14,7,29,0.28
2013-10-4,63,59,56,60,57,54,94,92,89,29.90,29.55,10,4,24,0.02
2013-10-5,59,55,50,55,52,48,94,89,79,30.21,29.90,5,2,18,0.01
2013-10-6,66,56,47,58,52,45,94,87,73,30.23,30.19,9,3,16,0.01
2013-10-7,65,60,58,59,56,54,92,87,77,30.21,30.14,13,6,22,0.00
2013-10-8,60,57,52,57,54,49,94,90,82,30.23,30.13,10,4,20,0.12
2013-10-9,55,50,43,49,45,38,90,83,69,30.22,30.01,14,6,35,0.02
2013-10-10,51,45,40,41,38,33,84,75,64,30.29,30.08,8,4,21,0.01
2013-10-11,55,50,45,50,45,39,89,83,78,30.35,30.24,8,3,19,0.00
2013-10-12,56,52,50,51,48,45,87,85,81,30.30,30.12,8,3,21,0.00
2013-10-13,53,51,48,49,46,43,89,85,82,30.13,29.88,5,1,14,0.01
2013-10-14,56,49,44,49,45,42,93,87,77,29.88,29.78,5,1,14,0.16
2013-10-15,55,49,43,53,46,41,95,90,83,29.97,29.80,4,0,10,0.01
2013-10-16,51,48,44,49,45,41,92,90,84,29.96,29.46,17,6,41,0.50
2013-10-17,60,52,45,54,48,41,92,87,79,29.96,29.66,9,3,25,0.08
2013-10-18,56,52,46,50,46,42,86,82,76,29.97,29.67,13,3,27,0.14
2013-10-19,63,55,52,53,45,40,76,69,64,29.67,29.50,13,7,29,0.28
2013-10-20,60,54,51,47,42,38,64,62,58,29.57,29.47,13,8,29,0.03
2013-10-21,62,56,50,45,39,36,58,54,51,29.59,29.38,16,8,29,0.09
2013-10-22,61,58,57,42,39,38,51,50,48,29.38,29.16,17,11,30,0.24
2013-10-23,57,51,44,38,34,29,59,51,49,29.73,29.06,14,8,24,0.54
2013-10-24,60,50,42,46,35,27,62,55,53,29.92,29.73,9,3,17,0.01
2013-10-25,63,55,52,46,38,34,58,51,47,29.78,29.41,16,8,31,0.43
2013-10-26,58,54,48,43,36,30,60,51,47,29.52,29.32,17,9,32,0.19
2013-10-27,58,52,47,42,35,30,59,53,49,29.32,29.11,17,11,38,0.20
2013-10-28,51,48,44,34,30,27,54,51,47,29.42,28.94,11,6,25,0.34
2013-10-29,48,45,42,32,28,25,53,51,49,29.97,29.42,9,4,26,0.32
2013-10-30,53,47,41,37,30,24,54,51,48,30.03,29.82,17,7,36,0.12
2013-10-31,55,49,46,39,32,28,56,51,48,29.94,29.77,13,7,25,0.30
2013-11-1,49,46,41,33,28,23,55,50,48,29.79,29.59,10,4,21,0.15
2013-11-2,52,44,38,37,26,20,57,49,45,29.60,28.99,21,9,42,0.34
2013-11-3,50,44,35,36,29,19,60,55,52,29.41,29.20,12,6,35,0.00
2013-11-4,47,37,28,31,20,12,53,51,45,29.42,29.20,7,1,15,0.06
2013-11-5,47,43,38,28,24,20,52,48,43,29.37,29.14,11,5,23,0.21
2013-11-6,49,45,43,29,26,22,52,48,43,29.48,29.35,8,3,18,0.18
2013-11-7,51,45,40,38,29,20,62,53,43,29.65,29.48,16,8,28,0.07
2013-11-8,46,43,39,32,27,20,59,54,46,29.63,29.55,11,6,22,0.16
2013-11-9,43,39,32,28,21,15,54,49,45,29.64,29.55,14,4,23,0.13
2013-11-10,46,36,29,31,20,12,57,50,45,30.18,29.64,8,1,19,0.01
2013-11-11,54,49,41,30,28,24,56,43,39,30.14,29.96,17,8,30,0.20
2013-11-12,54,45,32,35,27,22,57,39,39,30.48,30.13,8,3,22,0.03
2013-11-13,48,44,32,34,27,22,59,50,43,30.49,30.01,16,7,30,0.21
2013-11-14,48,43,32,36,28,17,64,56,42,30.51,30.01,16,7,38,0.11
2013-11-15,48,40,30,29,21,12,54,45,39,30.55,30.47,5,1,11,0.00
2013-11-16,50,48,47,32,28,24,51,46,38,30.47,30.37,7,4,18,0.07
2013-11-17,50,48,47,27,25,23,43,39,36,30.37,29.98,11,4,20,0.03
2013-11-18,47,43,33,26,22,16,52,43,39,29.98,29.77,9,3,16,0.11
2013-11-19,40,33,29,30,18,12,68,53,44,30.06,29.80,13,2,21,0.18
2013-11-20,44,41,36,33,26,17,66,56,40,29.90,29.42,15,9,31,0.43
2013-11-21,45,41,38,30,26,23,63,56,50,30.05,29.56,12,4,22,0.00
2013-11-22,43,36,28,30,21,11,61,55,46,30.25,30.05,3,0,10,0.00
2013-11-23,39,32,25,23,14,8,55,48,43,30.41,30.25,3,0,5,0.01
2013-11-24,44,38,30,29,22,15,61,52,44,30.67,30.40,5,0,10,0.00
2013-11-25,41,32,26,30,16,9,64,52,43,30.75,30.66,3,0,6,0.01
2013-11-26,47,41,32,28,21,14,51,45,39,30.73,30.57,6,2,15,0.00
2013-11-27,50,47,32,26,24,18,42,39,37,30.57,30.52,9,4,20,0.01
2013-11-28,44,38,32,27,20,18,52,28,40,30.60,30.48,4,1,10,0.02
2013-11-29,59,50,32,47,31,22,64,49,38,30.48,30.19,19,9,43,0.08
2013-11-30,59,43,32,47,37,29,94,80,57,30.44,30.24,8,2,15,0.00
2013-12-1,50,47,45,46,44,42,94,89,83,30.59,30.43,6,2,14,0.00
2013-12-2,46,45,44,43,40,38,90,84,78,30.59,30.43,9,3,16,0.00
2013-12-3,48,45,44,44,40,37,90,82,78,30.43,30.22,8,5,16,0.00
2013-12-4,48,42,36,46,38,34,95,85,76,30.41,30.19,10,4,23,0.00
2013-12-5,47,42,35,45,36,28,93,80,61,30.34,29.83,31,14,62,0.12
2013-12-6,45,40,35,44,37,28,96,91,73,30.34,30.21,9,4,21,0.16
2013-12-7,47,46,44,44,44,42,96,92,87,30.26,30.13,9,6,23,0.07
2013-12-8,52,49,46,47,46,44,93,88,78,30.18,30.08,12,8,28,0.27
2013-12-9,53,49,43,48,45,40,91,86,79,30.30,30.17,11,6,23,0.00
2013-12-10,49,46,42,43,41,39,91,83,79,30.36,30.28,14,9,26,0.00
2013-12-11,47,44,41,42,38,34,91,82,68,30.36,30.18,9,3,23,0.00
2013-12-12,52,48,40,50,44,35,93,85,65,30.18,30.03,12,7,22,0.09
2013-12-13,53,50,44,50,47,39,93,88,79,30.03,29.84,17,10,31,0.12
2013-12-14,52,47,40,48,42,35,91,83,67,30.09,29.73,25,13,53,0.15
2013-12-15,55,49,40,52,45,36,93,85,77,30.04,29.69,17,11,30,0.11
2013-12-16,53,46,42,51,43,36,95,89,79,30.07,29.65,15,7,29,0.29
2013-12-17,43,39,33,38,36,32,96,88,79,30.20,29.91,11,4,21,0.09
2013-12-18,51,45,38,48,42,35,91,88,84,29.91,28.99,31,16,61,0.36
2013-12-19,43,40,37,39,35,32,88,82,71,29.69,29.13,17,11,32,0.08
2013-12-20,50,44,37,48,40,33,94,86,81,29.95,29.68,24,14,47,0.36
2013-12-21,53,48,42,48,43,37,93,81,68,29.73,29.35,24,14,46,0.20
2013-12-22,44,41,37,38,36,31,91,82,72,29.73,29.49,19,11,36,0.19
2013-12-23,52,45,37,48,41,32,92,86,77,29.71,28.47,26,16,47,0.28
2013-12-24,50,42,38,48,35,32,92,78,65,28.77,28.45,27,16,51,0.10
2013-12-25,43,39,36,37,35,33,92,86,79,29.16,28.75,17,9,30,0.02
2013-12-26,43,38,32,39,35,31,96,90,83,29.36,28.79,28,6,54,0.05
2013-12-27,49,46,43,42,38,35,91,74,65,29.06,28.56,33,21,59,0.20
2013-12-28,43,41,39,41,38,35,94,88,75,29.62,29.05,16,8,29,0.37
2013-12-29,45,42,40,41,38,35,91,84,72,29.92,29.62,19,8,35,0.02
2013-12-30,51,46,41,47,42,37,93,88,84,29.72,29.26,26,15,44,0.11
2013-12-31,48,43,41,43,39,37,93,86,81,29.69,29.34,19,12,35,0.13
2014-1-1,52,45,40,48,42,37,93,89,86,29.39,28.80,21,13,46,0.33
2014-1-2,48,45,41,44,41,38,95,87,75,29.27,28.90,18,10,34,0.21